Time;durP1;ratioP1;P1;durP2;ratioP2;P2;SDS_P1;SDS_P2;PMS_P1;PMS_P2;Temp;Humidity;BMP_temperature;BMP_pressure;BME280_temperature;BME280_humidity;BME280_pressure;Samples;Min_cycle;Max_cycle;Signal;HPM_P1;HPM_P2
2021/06/19 00:00:24;;;;;;;;;;;23.20;99.90;;;;;;5073047;28;19970;-76
2021/06/19 00:02:50;;;;;;;;;;;23.10;99.90;;;;;;5075280;28;19912;-76
2021/06/19 00:05:16;;;;;;;;;;;23.10;99.90;;;;;;5074551;28;19912;-76
2021/06/19 00:07:42;;;;;;;;;;;23.10;99.90;;;;;;5074182;28;20302;-76
2021/06/19 00:10:08;;;;;;;;;;;23.00;99.90;;;;;;5074288;28;19936;-76
2021/06/19 00:12:34;;;;;;;;;;;23.20;99.90;;;;;;5079766;28;19917;-76
2021/06/19 00:15:00;;;;;;;;;;;23.30;99.90;;;;;;5072461;28;19920;-75
2021/06/19 00:17:26;;;;;;;;;;;23.20;99.90;;;;;;5073870;28;19912;-76
2021/06/19 00:19:52;;;;;;;;;;;23.20;99.90;;;;;;5073482;28;19916;-74
2021/06/19 00:22:17;;;;;;;;;;;23.30;99.90;;;;;;5089117;28;19934;-75
2021/06/19 00:24:43;;;;;;;;;;;23.30;99.90;;;;;;5074065;28;19916;-74
2021/06/19 00:27:08;;;;;;;;;;;23.30;99.90;;;;;;5087442;28;19916;-76
2021/06/19 00:29:34;;;;;;;;;;;23.40;99.90;;;;;;5072817;28;19955;-75
2021/06/19 00:31:59;;;;;;;;;;;23.40;99.90;;;;;;5074421;28;20277;-75
2021/06/19 00:34:25;;;;;;;;;;;23.40;99.90;;;;;;5074553;28;19916;-75
2021/06/19 00:36:51;;;;;;;;;;;23.40;99.90;;;;;;5074059;28;20282;-75
2021/06/19 00:39:16;;;;;;;;;;;23.60;99.90;;;;;;5075666;28;19932;-75
2021/06/19 00:41:42;;;;;;;;;;;23.70;99.90;;;;;;5073097;28;19966;-75
2021/06/19 00:44:15;;;;;;;;;;;23.60;99.90;;;;;;5072253;28;19960;-75
2021/06/19 00:46:41;;;;;;;;;;;23.60;99.90;;;;;;5073886;28;19912;-75
2021/06/19 00:49:06;;;;;;;;;;;23.60;99.90;;;;;;5072756;28;19913;-75
2021/06/19 00:51:32;;;;;;;;;;;23.60;99.90;;;;;;5072951;28;19917;-75
2021/06/19 00:53:58;;;;;;;;;;;23.50;99.90;;;;;;5067200;28;19934;-74
2021/06/19 00:56:23;;;;;;;;;;;23.50;99.90;;;;;;5072932;28;20481;-75
2021/06/19 00:58:49;;;;;;;;;;;23.40;99.90;;;;;;5067772;28;20362;-74
2021/06/19 01:01:15;;;;;;;;;;;23.40;99.90;;;;;;5061869;28;19912;-74
2021/06/19 01:03:41;;;;;;;;;;;23.40;99.90;;;;;;5071084;28;20011;-74
2021/06/19 01:06:06;;;;;;;;;;;23.20;99.90;;;;;;5072490;28;19919;-75
2021/06/19 01:08:32;;;;;;;;;;;23.10;99.90;;;;;;5072545;28;20290;-75
2021/06/19 01:10:58;;;;;;;;;;;23.00;99.90;;;;;;5072310;28;20509;-75
2021/06/19 01:13:23;;;;;;;;;;;23.00;99.90;;;;;;5072311;28;19916;-75
2021/06/19 01:15:49;;;;;;;;;;;23.00;99.90;;;;;;5072573;28;20370;-75
2021/06/19 01:18:15;;;;;;;;;;;23.00;99.90;;;;;;5072436;28;19912;-75
2021/06/19 01:20:40;;;;;;;;;;;23.10;99.90;;;;;;5072827;28;20100;-74
2021/06/19 01:23:06;;;;;;;;;;;23.10;99.90;;;;;;5072473;28;20339;-75
2021/06/19 01:25:33;;;;;;;;;;;23.10;99.90;;;;;;5071751;28;19919;-75
2021/06/19 01:27:59;;;;;;;;;;;23.10;99.90;;;;;;5072278;28;19961;-75
2021/06/19 01:30:26;;;;;;;;;;;23.20;99.90;;;;;;5072476;28;19920;-75
2021/06/19 01:32:52;;;;;;;;;;;23.20;99.90;;;;;;5072116;28;19916;-75
2021/06/19 01:35:18;;;;;;;;;;;23.10;99.90;;;;;;5072193;28;19924;-74
2021/06/19 01:37:45;;;;;;;;;;;23.10;99.90;;;;;;5072299;28;19920;-74
2021/06/19 01:40:13;;;;;;;;;;;23.00;99.90;;;;;;5072436;28;19995;-74
2021/06/19 01:42:39;;;;;;;;;;;23.00;99.90;;;;;;5075096;28;20298;-75
2021/06/19 01:45:09;;;;;;;;;;;23.00;99.90;;;;;;5073121;28;19913;-75
2021/06/19 01:47:35;;;;;;;;;;;22.90;99.90;;;;;;5073045;28;19912;-76
2021/06/19 01:50:04;;;;;;;;;;;23.00;99.90;;;;;;5072148;28;19999;-75
2021/06/19 01:52:29;;;;;;;;;;;22.90;99.90;;;;;;5072376;28;20329;-76
2021/06/19 01:54:55;;;;;;;;;;;22.90;99.90;;;;;;5071409;28;19966;-75
2021/06/19 01:57:20;;;;;;;;;;;22.80;99.90;;;;;;5072179;28;19917;-74
2021/06/19 02:00:05;;;;;;;;;;;22.70;99.90;;;;;;5071660;28;19913;-75
2021/06/19 02:02:30;;;;;;;;;;;22.70;99.90;;;;;;5071779;28;20029;-74
2021/06/19 02:04:56;;;;;;;;;;;22.70;99.90;;;;;;5071767;28;19912;-75
2021/06/19 02:07:22;;;;;;;;;;;22.60;99.90;;;;;;5071717;28;20346;-74
2021/06/19 02:09:47;;;;;;;;;;;22.50;99.90;;;;;;5071360;28;20003;-75
2021/06/19 02:12:13;;;;;;;;;;;22.50;99.90;;;;;;5070589;28;19966;-75
2021/06/19 02:14:38;;;;;;;;;;;22.50;99.90;;;;;;5071823;28;20376;-75
2021/06/19 02:17:04;;;;;;;;;;;22.30;99.90;;;;;;5070640;28;19924;-75
2021/06/19 02:19:30;;;;;;;;;;;22.20;99.90;;;;;;5069695;28;20365;-75
2021/06/19 02:21:55;;;;;;;;;;;22.20;99.90;;;;;;5071535;28;20323;-75
2021/06/19 02:24:21;;;;;;;;;;;22.20;99.90;;;;;;5071666;28;19909;-75
2021/06/19 02:26:48;;;;;;;;;;;22.10;99.90;;;;;;5071412;28;20528;-75
2021/06/19 02:29:13;;;;;;;;;;;22.00;99.90;;;;;;5070910;28;19924;-75
2021/06/19 02:31:40;;;;;;;;;;;22.10;99.90;;;;;;5086190;28;21316;-75
2021/06/19 02:34:05;;;;;;;;;;;22.30;99.90;;;;;;5071152;28;19951;-75
2021/06/19 02:36:31;;;;;;;;;;;22.40;99.90;;;;;;5071060;28;19919;-75
2021/06/19 02:38:56;;;;;;;;;;;22.30;99.90;;;;;;5070489;28;20031;-75
2021/06/19 02:41:22;;;;;;;;;;;22.30;99.90;;;;;;5071191;28;19915;-73
2021/06/19 02:43:48;;;;;;;;;;;22.30;99.90;;;;;;5068404;28;19939;-74
2021/06/19 02:46:13;;;;;;;;;;;22.30;99.90;;;;;;5070950;28;19924;-74
2021/06/19 02:48:40;;;;;;;;;;;22.30;99.90;;;;;;5070699;28;19913;-76
2021/06/19 02:51:05;;;;;;;;;;;22.30;99.90;;;;;;5069896;28;19923;-75
2021/06/19 02:53:31;;;;;;;;;;;22.20;99.90;;;;;;5071552;28;20554;-74
2021/06/19 02:55:57;;;;;;;;;;;22.30;99.90;;;;;;5071523;28;19909;-75
2021/06/19 02:58:22;;;;;;;;;;;22.20;99.90;;;;;;5070608;28;19924;-74
2021/06/19 03:00:50;;;;;;;;;;;22.20;99.90;;;;;;5064154;28;19935;-75
2021/06/19 03:03:15;;;;;;;;;;;22.20;99.90;;;;;;5071371;28;19935;-76
2021/06/19 03:05:41;;;;;;;;;;;22.10;99.90;;;;;;5071105;28;19912;-74
2021/06/19 03:08:07;;;;;;;;;;;22.10;99.90;;;;;;5071001;28;19912;-75
2021/06/19 03:10:34;;;;;;;;;;;22.00;99.90;;;;;;5070689;28;19912;-74
2021/06/19 03:12:59;;;;;;;;;;;22.10;99.90;;;;;;5070602;28;19912;-74
2021/06/19 03:15:26;;;;;;;;;;;22.00;99.90;;;;;;5071184;28;19962;-74
2021/06/19 03:17:52;;;;;;;;;;;22.10;99.90;;;;;;5070698;28;19920;-74
2021/06/19 03:20:18;;;;;;;;;;;22.00;99.90;;;;;;5070448;28;19912;-74
2021/06/19 03:22:48;;;;;;;;;;;21.90;99.90;;;;;;5072902;28;19916;-74
2021/06/19 03:25:14;;;;;;;;;;;22.00;99.90;;;;;;5075240;28;19909;-74
2021/06/19 03:27:40;;;;;;;;;;;21.90;99.90;;;;;;5074812;28;19939;-73
2021/06/19 03:30:06;;;;;;;;;;;21.90;99.90;;;;;;5075463;28;19920;-74
2021/06/19 03:32:32;;;;;;;;;;;22.10;99.90;;;;;;5090769;28;19952;-74
2021/06/19 03:34:57;;;;;;;;;;;22.20;99.90;;;;;;5072945;28;19958;-75
2021/06/19 03:37:23;;;;;;;;;;;22.10;99.90;;;;;;5074215;28;20347;-74
2021/06/19 03:39:49;;;;;;;;;;;22.10;99.90;;;;;;5074861;28;20077;-74
2021/06/19 03:42:14;;;;;;;;;;;22.10;99.90;;;;;;5074993;28;19961;-74
2021/06/19 03:44:40;;;;;;;;;;;22.00;99.90;;;;;;5076725;28;19940;-74
2021/06/19 03:47:05;;;;;;;;;;;21.90;99.90;;;;;;5083418;28;19921;-74
2021/06/19 03:49:31;;;;;;;;;;;21.90;99.90;;;;;;5076002;28;20294;-74
2021/06/19 03:51:56;;;;;;;;;;;21.80;99.90;;;;;;5084957;28;19912;-74
2021/06/19 03:54:22;;;;;;;;;;;21.90;99.90;;;;;;5089394;28;19920;-74
2021/06/19 03:56:47;;;;;;;;;;;21.90;99.90;;;;;;5089279;28;19914;-74
2021/06/19 03:59:13;;;;;;;;;;;21.90;99.90;;;;;;5088737;28;19912;-74
2021/06/19 04:01:39;;;;;;;;;;;21.90;99.90;;;;;;5087224;28;19913;-74
2021/06/19 04:04:04;;;;;;;;;;;21.90;99.90;;;;;;5085775;28;19912;-74
2021/06/19 04:06:30;;;;;;;;;;;21.90;99.90;;;;;;5077784;28;19908;-74
2021/06/19 04:08:55;;;;;;;;;;;21.90;99.90;;;;;;5076812;28;19909;-74
2021/06/19 04:11:21;;;;;;;;;;;22.00;99.90;;;;;;5077738;28;19943;-74
2021/06/19 04:13:47;;;;;;;;;;;21.90;99.90;;;;;;5077568;28;19915;-75
2021/06/19 04:16:12;;;;;;;;;;;22.10;99.90;;;;;;5085478;28;19909;-74
2021/06/19 04:18:38;;;;;;;;;;;22.20;99.90;;;;;;5086404;28;20432;-75
2021/06/19 04:21:04;;;;;;;;;;;22.20;99.90;;;;;;5081121;28;19913;-75
2021/06/19 04:23:30;;;;;;;;;;;22.20;99.90;;;;;;5084424;28;19916;-75
2021/06/19 04:25:55;;;;;;;;;;;22.20;99.90;;;;;;5080107;28;19919;-75
2021/06/19 04:28:21;;;;;;;;;;;22.30;99.90;;;;;;5085260;28;19923;-75
2021/06/19 04:30:47;;;;;;;;;;;22.20;99.90;;;;;;5087853;28;20031;-76
2021/06/19 04:33:12;;;;;;;;;;;22.20;99.90;;;;;;5085920;28;19947;-74
2021/06/19 04:35:38;;;;;;;;;;;22.20;99.90;;;;;;5083862;28;19919;-75
2021/06/19 04:38:03;;;;;;;;;;;22.30;99.90;;;;;;5073984;28;19956;-75
2021/06/19 04:40:41;;;;;;;;;;;22.30;99.90;;;;;;5073933;28;19999;-75
2021/06/19 04:43:10;;;;;;;;;;;22.30;99.90;;;;;;5073699;28;20439;-75
2021/06/19 04:45:36;;;;;;;;;;;22.40;99.90;;;;;;5074109;28;19916;-76
2021/06/19 04:48:05;;;;;;;;;;;22.50;99.90;;;;;;5083813;28;19944;-75
2021/06/19 04:50:31;;;;;;;;;;;22.60;99.90;;;;;;5078208;28;19916;-75
2021/06/19 04:52:58;;;;;;;;;;;22.70;99.90;;;;;;5073260;28;19919;-75
2021/06/19 04:55:23;;;;;;;;;;;22.70;99.90;;;;;;5073251;28;19987;-75
2021/06/19 04:57:51;;;;;;;;;;;22.70;99.90;;;;;;5072094;28;19944;-65
2021/06/19 05:00:18;;;;;;;;;;;22.80;99.90;;;;;;5077170;28;20354;-68
2021/06/19 05:02:43;;;;;;;;;;;23.00;99.90;;;;;;5073055;28;19908;-68
2021/06/19 05:05:09;;;;;;;;;;;23.00;99.90;;;;;;5071803;28;20346;-67
2021/06/19 05:07:35;;;;;;;;;;;23.00;99.90;;;;;;5072391;28;19908;-66
2021/06/19 05:10:04;;;;;;;;;;;23.00;99.90;;;;;;5072594;28;19918;-67
2021/06/19 05:12:30;;;;;;;;;;;23.00;99.90;;;;;;5072899;28;19912;-67
2021/06/19 05:14:56;;;;;;;;;;;23.20;99.90;;;;;;5072353;28;19915;-66
2021/06/19 05:17:21;;;;;;;;;;;23.10;99.90;;;;;;5070744;28;19913;-69
2021/06/19 05:19:47;;;;;;;;;;;23.30;99.90;;;;;;5072241;28;19909;-67
2021/06/19 05:22:12;;;;;;;;;;;23.50;99.90;;;;;;5071774;28;20061;-66
2021/06/19 05:24:38;;;;;;;;;;;23.50;99.90;;;;;;5069416;28;19908;-66
2021/06/19 05:27:04;;;;;;;;;;;23.60;99.90;;;;;;5056232;28;19958;-66
2021/06/19 05:29:29;;;;;;;;;;;23.70;99.90;;;;;;5071606;28;19913;-67
2021/06/19 05:31:55;;;;;;;;;;;23.70;99.90;;;;;;5072192;28;20005;-67
2021/06/19 05:34:20;;;;;;;;;;;23.80;99.90;;;;;;5072098;28;19915;-66
2021/06/19 05:36:46;;;;;;;;;;;23.90;99.90;;;;;;5072097;28;19969;-67
2021/06/19 05:39:12;;;;;;;;;;;23.90;99.90;;;;;;5071740;28;19965;-67
2021/06/19 05:41:38;;;;;;;;;;;24.00;99.90;;;;;;5072086;28;19909;-67
2021/06/19 05:44:08;;;;;;;;;;;24.00;99.90;;;;;;5070071;28;19913;-67
2021/06/19 05:46:34;;;;;;;;;;;24.20;99.90;;;;;;5070583;28;19916;-67
2021/06/19 05:48:59;;;;;;;;;;;24.30;99.90;;;;;;5071680;28;20021;-67
2021/06/19 05:51:25;;;;;;;;;;;24.40;99.90;;;;;;5072393;28;19966;-67
2021/06/19 05:53:51;;;;;;;;;;;24.60;99.90;;;;;;5072014;28;19995;-67
2021/06/19 05:56:17;;;;;;;;;;;24.70;99.90;;;;;;5073467;28;19931;-67
2021/06/19 05:58:42;;;;;;;;;;;24.80;99.90;;;;;;5072582;28;19909;-67
2021/06/19 06:01:08;;;;;;;;;;;25.10;99.90;;;;;;5072606;28;19912;-67
2021/06/19 06:03:34;;;;;;;;;;;25.20;99.90;;;;;;5071905;28;20298;-68
2021/06/19 06:05:59;;;;;;;;;;;25.20;99.90;;;;;;5071990;28;19908;-67
2021/06/19 06:08:25;;;;;;;;;;;25.30;99.90;;;;;;5070142;28;19913;-68
2021/06/19 06:10:51;;;;;;;;;;;25.50;99.90;;;;;;5071219;28;20421;-68
2021/06/19 06:13:16;;;;;;;;;;;25.70;99.90;;;;;;5071795;28;19913;-67
2021/06/19 06:15:42;;;;;;;;;;;25.80;99.90;;;;;;5071639;28;19927;-65
2021/06/19 06:19:08;;;;;;;;;;;25.80;99.90;;;;;;5159187;27;19923;-64
2021/06/19 06:21:34;;;;;;;;;;;26.10;99.90;;;;;;5150056;27;19934;-64
2021/06/19 06:23:59;;;;;;;;;;;26.20;99.90;;;;;;5150592;27;19954;-64
2021/06/19 06:26:25;;;;;;;;;;;26.20;99.90;;;;;;5149449;27;19911;-64
2021/06/19 06:28:51;;;;;;;;;;;26.20;99.90;;;;;;5149400;27;19998;-64
2021/06/19 06:31:17;;;;;;;;;;;26.20;99.90;;;;;;5149175;27;19919;-64
2021/06/19 06:33:42;;;;;;;;;;;26.30;99.90;;;;;;5149093;27;19930;-64
2021/06/19 06:36:08;;;;;;;;;;;26.50;99.90;;;;;;5147707;27;19911;-63
2021/06/19 06:38:33;;;;;;;;;;;26.70;99.90;;;;;;5149300;27;19912;-63
2021/06/19 06:40:59;;;;;;;;;;;26.70;99.90;;;;;;5148688;27;20416;-64
2021/06/19 06:43:25;;;;;;;;;;;26.80;99.90;;;;;;5149586;27;20354;-64
2021/06/19 06:45:50;;;;;;;;;;;26.80;99.90;;;;;;5149463;27;19953;-63
2021/06/19 06:48:16;;;;;;;;;;;26.80;99.90;;;;;;5129480;27;20561;-65
2021/06/19 06:50:42;;;;;;;;;;;26.70;99.90;;;;;;5148907;27;19918;-63
2021/06/19 06:53:07;;;;;;;;;;;26.80;99.90;;;;;;5149127;27;19911;-63
2021/06/19 06:55:33;;;;;;;;;;;26.80;99.90;;;;;;5149236;27;19960;-63
2021/06/19 06:57:59;;;;;;;;;;;26.90;99.90;;;;;;5149241;27;20351;-64
2021/06/19 07:00:24;;;;;;;;;;;27.00;99.90;;;;;;5149421;27;20327;-65
2021/06/19 07:02:50;;;;;;;;;;;26.80;99.90;;;;;;5149359;27;20350;-64
2021/06/19 07:05:16;;;;;;;;;;;27.00;99.90;;;;;;5147326;27;20274;-64
2021/06/19 07:07:41;;;;;;;;;;;27.10;99.90;;;;;;5146530;27;20369;-65
2021/06/19 07:10:08;;;;;;;;;;;27.10;99.90;;;;;;5148427;27;20389;-65
2021/06/19 07:12:35;;;;;;;;;;;27.10;99.90;;;;;;5149181;27;19907;-64
2021/06/19 07:15:01;;;;;;;;;;;27.00;99.90;;;;;;5148240;27;19947;-64
2021/06/19 07:17:28;;;;;;;;;;;26.90;99.90;;;;;;5148640;27;20509;-65
2021/06/19 07:19:53;;;;;;;;;;;26.90;99.90;;;;;;5148805;27;19950;-63
2021/06/19 07:22:19;;;;;;;;;;;27.10;99.90;;;;;;5149377;27;19926;-66
2021/06/19 07:24:44;;;;;;;;;;;27.10;99.90;;;;;;5149322;27;20276;-64
2021/06/19 07:27:10;;;;;;;;;;;27.20;99.90;;;;;;5148575;27;19915;-64
2021/06/19 07:29:35;;;;;;;;;;;27.10;99.90;;;;;;5138635;27;19919;-64
2021/06/19 07:32:01;;;;;;;;;;;27.20;99.90;;;;;;5134318;27;19911;-66
2021/06/19 07:34:28;;;;;;;;;;;27.30;99.90;;;;;;5134679;27;20011;-64
2021/06/19 07:36:54;;;;;;;;;;;27.30;99.90;;;;;;5133515;27;20017;-68
2021/06/19 07:39:19;;;;;;;;;;;27.30;99.90;;;;;;5134391;27;20024;-67
2021/06/19 07:41:45;;;;;;;;;;;27.40;99.90;;;;;;5134307;27;19956;-67
2021/06/19 07:44:11;;;;;;;;;;;27.50;99.90;;;;;;5134392;27;19911;-68
2021/06/19 07:46:37;;;;;;;;;;;27.60;99.90;;;;;;5133984;27;19918;-67
2021/06/19 07:49:03;;;;;;;;;;;27.60;99.90;;;;;;5133034;27;19911;-67
2021/06/19 07:51:29;;;;;;;;;;;27.60;99.90;;;;;;5134548;27;19914;-68
2021/06/19 07:53:54;;;;;;;;;;;27.60;99.90;;;;;;5134609;27;19946;-68
2021/06/19 07:56:20;;;;;;;;;;;27.60;99.90;;;;;;5134327;27;20384;-68
2021/06/19 07:58:46;;;;;;;;;;;27.50;99.90;;;;;;5130039;27;20318;-69
2021/06/19 08:01:11;;;;;;;;;;;27.60;99.90;;;;;;5136424;27;19912;-68
2021/06/19 08:03:37;;;;;;;;;;;27.60;99.90;;;;;;5133921;27;19918;-68
2021/06/19 08:06:02;;;;;;;;;;;27.70;99.90;;;;;;5134100;27;20371;-68
2021/06/19 08:08:28;;;;;;;;;;;27.90;99.90;;;;;;5133550;27;19912;-68
2021/06/19 08:10:54;;;;;;;;;;;27.90;99.90;;;;;;5133907;27;20416;-68
2021/06/19 08:13:19;;;;;;;;;;;28.00;99.90;;;;;;5129730;27;20300;-68
2021/06/19 08:15:45;;;;;;;;;;;28.00;99.90;;;;;;5133595;27;20303;-67
2021/06/19 08:18:11;;;;;;;;;;;28.00;99.90;;;;;;5138488;27;19921;-69
2021/06/19 08:20:37;;;;;;;;;;;28.00;99.90;;;;;;5135950;27;20060;-67
2021/06/19 08:23:04;;;;;;;;;;;28.20;99.90;;;;;;5120929;27;20368;-67
2021/06/19 08:25:30;;;;;;;;;;;28.20;99.90;;;;;;5138719;27;20340;-67
2021/06/19 08:27:55;;;;;;;;;;;28.30;99.90;;;;;;5132716;27;19994;-69
2021/06/19 08:30:21;;;;;;;;;;;28.30;99.90;;;;;;5131553;27;19966;-68
2021/06/19 08:32:46;;;;;;;;;;;28.40;99.90;;;;;;5129694;27;19961;-67
2021/06/19 08:35:12;;;;;;;;;;;28.20;99.90;;;;;;5137052;27;19968;-68
2021/06/19 08:37:38;;;;;;;;;;;28.20;99.90;;;;;;5133456;27;19912;-68
2021/06/19 08:40:04;;;;;;;;;;;28.10;99.90;;;;;;5133020;27;19907;-67
2021/06/19 08:42:30;;;;;;;;;;;27.90;99.90;;;;;;5131554;27;19911;-68
2021/06/19 08:44:57;;;;;;;;;;;27.70;99.90;;;;;;5129370;27;19975;-67
2021/06/19 08:47:23;;;;;;;;;;;27.50;99.90;;;;;;5127989;27;19918;-68
2021/06/19 08:49:51;;;;;;;;;;;27.30;99.90;;;;;;5141133;27;20387;-68
2021/06/19 08:52:17;;;;;;;;;;;27.10;99.90;;;;;;5133174;27;19914;-68
2021/06/19 08:54:42;;;;;;;;;;;26.60;99.90;;;;;;5133587;27;19907;-69
2021/06/19 08:57:09;;;;;;;;;;;26.50;99.90;;;;;;5133392;27;19918;-68
2021/06/19 08:59:35;;;;;;;;;;;26.60;99.90;;;;;;5131383;27;19912;-68
2021/06/19 09:02:00;;;;;;;;;;;26.60;99.90;;;;;;5133003;27;19964;-70
2021/06/19 09:04:26;;;;;;;;;;;26.70;99.90;;;;;;5132948;27;20289;-68
2021/06/19 09:06:53;;;;;;;;;;;26.80;99.90;;;;;;5131857;27;20398;-70
2021/06/19 09:09:19;;;;;;;;;;;27.10;99.90;;;;;;5132255;27;19911;-68
2021/06/19 09:11:46;;;;;;;;;;;27.30;99.90;;;;;;5131888;27;19978;-68
2021/06/19 09:14:13;;;;;;;;;;;27.50;99.90;;;;;;5132303;27;19963;-68
2021/06/19 09:16:39;;;;;;;;;;;27.40;99.90;;;;;;5131464;27;19911;-69
2021/06/19 09:19:22;;;;;;;;;;;27.30;99.90;;;;;;5130182;27;19916;-67
2021/06/19 09:21:48;;;;;;;;;;;27.40;99.90;;;;;;5132327;27;19920;-68
2021/06/19 09:24:13;;;;;;;;;;;27.40;99.90;;;;;;5130482;27;19908;-66
2021/06/19 09:26:39;;;;;;;;;;;27.40;99.90;;;;;;5126526;27;20376;-68
2021/06/19 09:29:14;;;;;;;;;;;27.50;99.90;;;;;;5134847;27;19915;-67
2021/06/19 09:31:53;;;;;;;;;;;27.30;99.90;;;;;;5130736;27;19918;-66
2021/06/19 09:34:26;;;;;;;;;;;27.20;99.90;;;;;;5131883;27;19922;-68
2021/06/19 09:36:51;;;;;;;;;;;27.20;99.90;;;;;;5132029;27;19911;-67
2021/06/19 09:39:19;;;;;;;;;;;27.30;99.90;;;;;;5131651;27;19911;-70
2021/06/19 09:41:51;;;;;;;;;;;27.30;99.90;;;;;;5132122;27;19964;-69
2021/06/19 09:44:17;;;;;;;;;;;27.40;99.90;;;;;;5131883;27;19911;-66
2021/06/19 09:46:55;;;;;;;;;;;27.50;99.90;;;;;;5131987;27;19908;-66
2021/06/19 09:49:20;;;;;;;;;;;27.70;99.90;;;;;;5131487;27;21461;-68
2021/06/19 09:51:46;;;;;;;;;;;27.80;99.90;;;;;;5132615;27;19918;-68
2021/06/19 09:54:12;;;;;;;;;;;27.80;99.90;;;;;;5112486;27;19920;-68
2021/06/19 09:56:54;;;;;;;;;;;27.90;99.90;;;;;;5130912;27;19911;-67
2021/06/19 09:59:25;;;;;;;;;;;27.90;99.90;;;;;;5124808;27;19948;-66
2021/06/19 10:01:50;;;;;;;;;;;28.00;99.90;;;;;;5132246;27;19916;-66
2021/06/19 10:04:20;;;;;;;;;;;27.80;99.90;;;;;;5132063;27;19965;-66
2021/06/19 10:06:46;;;;;;;;;;;27.70;99.90;;;;;;5131909;27;19915;-67
2021/06/19 10:09:12;;;;;;;;;;;27.60;99.90;;;;;;5131321;27;19963;-67
2021/06/19 10:11:38;;;;;;;;;;;27.60;99.90;;;;;;5113169;27;19998;-67
2021/06/19 10:14:04;;;;;;;;;;;27.60;99.90;;;;;;5113279;27;19908;-69
2021/06/19 10:16:30;;;;;;;;;;;27.70;99.90;;;;;;5131902;28;19918;-67
2021/06/19 10:18:56;;;;;;;;;;;27.70;99.90;;;;;;5130914;28;20396;-66
2021/06/19 10:21:22;;;;;;;;;;;27.70;99.90;;;;;;5131158;28;19912;-67
2021/06/19 10:23:48;;;;;;;;;;;27.70;99.90;;;;;;5129871;28;20333;-67
2021/06/19 10:26:14;;;;;;;;;;;27.90;99.90;;;;;;5131722;27;19955;-67
2021/06/19 10:28:47;;;;;;;;;;;27.90;99.90;;;;;;5131143;27;19918;-67
2021/06/19 10:31:13;;;;;;;;;;;28.00;99.90;;;;;;5131446;27;19911;-68
2021/06/19 10:33:39;;;;;;;;;;;28.30;99.90;;;;;;5131271;28;19939;-67
2021/06/19 10:36:09;;;;;;;;;;;28.50;99.90;;;;;;5108734;28;19955;-67
2021/06/19 10:38:52;;;;;;;;;;;28.70;99.90;;;;;;5121990;28;19915;-68
2021/06/19 10:41:19;;;;;;;;;;;28.50;99.90;;;;;;5099335;28;20006;-66
2021/06/19 10:43:46;;;;;;;;;;;28.50;99.90;;;;;;5092867;28;19961;-66
2021/06/19 10:46:30;;;;;;;;;;;28.50;99.90;;;;;;5127490;28;19915;-67
2021/06/19 10:48:57;;;;;;;;;;;28.40;99.90;;;;;;5131142;28;20536;-68
2021/06/19 10:51:23;;;;;;;;;;;28.40;99.90;;;;;;5130408;28;19920;-68
2021/06/19 10:54:08;;;;;;;;;;;28.40;99.90;;;;;;5128057;28;20273;-67
2021/06/19 10:56:52;;;;;;;;;;;28.40;99.90;;;;;;5131166;28;19933;-69
2021/06/19 10:59:17;;;;;;;;;;;28.30;99.90;;;;;;5130854;28;19927;-66
2021/06/19 11:01:43;;;;;;;;;;;28.30;99.90;;;;;;5131403;28;19912;-68
2021/06/19 11:04:28;;;;;;;;;;;28.40;99.90;;;;;;5131937;27;20002;-65
2021/06/19 11:06:54;;;;;;;;;;;28.40;99.90;;;;;;5134927;27;20418;-66
2021/06/19 11:09:34;;;;;;;;;;;28.50;99.90;;;;;;5134971;27;19994;-65
2021/06/19 11:12:03;;;;;;;;;;;28.60;99.90;;;;;;5135858;27;19908;-65
2021/06/19 11:14:44;;;;;;;;;;;28.70;99.90;;;;;;5135575;27;19907;-64
2021/06/19 11:17:30;;;;;;;;;;;28.70;99.90;;;;;;5115767;27;20392;-65
2021/06/19 11:19:58;;;;;;;;;;;28.70;99.90;;;;;;5134267;27;19961;-64
2021/06/19 11:22:37;;;;;;;;;;;28.60;99.90;;;;;;5134817;27;19908;-64
2021/06/19 11:25:11;;;;;;;;;;;28.70;99.90;;;;;;5132912;27;19918;-65
2021/06/19 11:27:48;;;;;;;;;;;28.80;99.90;;;;;;5134803;27;19907;-65
2021/06/19 11:30:32;;;;;;;;;;;28.60;99.90;;;;;;5134703;27;19919;-64
2021/06/19 11:33:24;;;;;;;;;;;28.60;99.90;;;;;;5135160;27;19911;-65
2021/06/19 11:35:56;;;;;;;;;;;28.70;99.90;;;;;;5120681;27;20379;-66
2021/06/19 11:38:23;;;;;;;;;;;28.70;99.90;;;;;;5134337;27;19911;-64
2021/06/19 11:40:49;;;;;;;;;;;28.70;99.90;;;;;;5134264;27;19912;-64
2021/06/19 11:43:27;;;;;;;;;;;28.70;99.90;;;;;;5134480;27;19915;-65
2021/06/19 11:45:56;;;;;;;;;;;28.80;99.90;;;;;;5134116;27;20298;-66
2021/06/19 11:48:22;;;;;;;;;;;28.70;99.90;;;;;;5115471;27;20014;-65
2021/06/19 11:50:47;;;;;;;;;;;28.50;99.90;;;;;;5118537;27;19915;-65
2021/06/19 11:53:31;;;;;;;;;;;28.40;99.90;;;;;;5133311;27;19918;-65
2021/06/19 11:56:12;;;;;;;;;;;28.20;99.90;;;;;;5132814;27;20273;-65
2021/06/19 11:58:56;;;;;;;;;;;28.00;99.90;;;;;;5118346;27;19923;-64
2021/06/19 12:01:30;;;;;;;;;;;27.70;99.90;;;;;;5113972;28;19998;-64
2021/06/19 12:04:04;;;;;;;;;;;27.80;99.90;;;;;;5113693;28;19912;-66
2021/06/19 12:06:30;;;;;;;;;;;27.80;99.90;;;;;;5129754;27;20423;-64
2021/06/19 12:08:55;;;;;;;;;;;27.60;99.90;;;;;;5133391;27;19908;-64
2021/06/19 12:11:31;;;;;;;;;;;27.60;99.90;;;;;;5114904;27;19922;-65
2021/06/19 12:13:57;;;;;;;;;;;27.90;99.90;;;;;;5133219;27;19914;-64
2021/06/19 12:16:30;;;;;;;;;;;28.00;99.90;;;;;;5114617;27;19912;-63
2021/06/19 12:18:56;;;;;;;;;;;28.00;99.90;;;;;;5132825;27;19967;-65
2021/06/19 12:21:28;;;;;;;;;;;28.00;99.90;;;;;;5133233;27;19922;-65
2021/06/19 12:23:54;;;;;;;;;;;28.00;99.90;;;;;;5133181;27;19908;-64
2021/06/19 12:26:19;;;;;;;;;;;28.00;99.90;;;;;;5132080;27;19926;-64
2021/06/19 12:28:49;;;;;;;;;;;27.90;99.90;;;;;;5132449;27;19912;-65
2021/06/19 12:31:21;;;;;;;;;;;27.90;99.90;;;;;;5132804;27;19930;-64
2021/06/19 12:33:54;;;;;;;;;;;27.70;99.90;;;;;;5094314;28;19908;-64
2021/06/19 12:36:23;;;;;;;;;;;27.80;99.90;;;;;;5112563;28;19943;-65
2021/06/19 12:38:48;;;;;;;;;;;27.70;99.90;;;;;;5112561;28;20003;-63
2021/06/19 12:41:14;;;;;;;;;;;27.70;99.90;;;;;;5127973;27;19965;-65
2021/06/19 12:43:53;;;;;;;;;;;27.60;99.90;;;;;;5132969;27;19911;-65
2021/06/19 12:46:20;;;;;;;;;;;27.70;99.90;;;;;;5133371;27;19908;-64
2021/06/19 12:48:46;;;;;;;;;;;27.80;99.90;;;;;;5132984;27;19908;-65
2021/06/19 12:51:22;;;;;;;;;;;27.90;99.90;;;;;;5132937;27;19952;-65
2021/06/19 12:53:48;;;;;;;;;;;28.00;99.90;;;;;;5132476;27;19911;-64
2021/06/19 12:56:13;;;;;;;;;;;27.80;99.90;;;;;;5131076;27;19912;-64
2021/06/19 12:58:43;;;;;;;;;;;27.70;99.90;;;;;;5132320;27;19947;-65
2021/06/19 13:01:25;;;;;;;;;;;27.70;99.90;;;;;;5132799;27;19911;-66
2021/06/19 13:03:55;;;;;;;;;;;27.60;99.90;;;;;;5113953;27;19915;-65
2021/06/19 13:06:28;;;;;;;;;;;27.40;99.90;;;;;;5114629;27;19915;-64
2021/06/19 13:08:58;;;;;;;;;;;27.40;99.90;;;;;;5132445;27;20015;-64
2021/06/19 13:11:26;;;;;;;;;;;27.30;99.90;;;;;;5132696;27;20249;-64
2021/06/19 13:13:52;;;;;;;;;;;27.30;99.90;;;;;;5132356;27;19915;-64
2021/06/19 13:16:28;;;;;;;;;;;27.30;99.90;;;;;;5132512;27;20289;-64
2021/06/19 13:19:01;;;;;;;;;;;27.40;99.90;;;;;;5131453;27;19920;-64
2021/06/19 13:21:27;;;;;;;;;;;27.70;99.90;;;;;;5132288;27;19912;-67
2021/06/19 13:23:53;;;;;;;;;;;27.80;99.90;;;;;;5132447;27;20005;-64
2021/06/19 13:26:22;;;;;;;;;;;27.90;99.90;;;;;;5130732;27;19946;-64
2021/06/19 13:28:51;;;;;;;;;;;27.90;99.90;;;;;;5132312;27;19994;-66
2021/06/19 13:31:21;;;;;;;;;;;27.70;99.90;;;;;;5132008;27;19911;-64
2021/06/19 13:33:48;;;;;;;;;;;27.70;99.90;;;;;;5132713;27;19915;-67
2021/06/19 13:36:15;;;;;;;;;;;27.60;99.90;;;;;;5113870;27;19927;-67
2021/06/19 13:39:01;;;;;;;;;;;27.60;99.90;;;;;;5132204;27;19920;-66
2021/06/19 13:41:31;;;;;;;;;;;27.80;99.90;;;;;;5131104;27;20064;-67
2021/06/19 13:43:56;;;;;;;;;;;27.80;99.90;;;;;;5131941;27;19912;-66
2021/06/19 13:46:22;;;;;;;;;;;27.70;99.90;;;;;;5131928;27;19914;-65
2021/06/19 13:48:48;;;;;;;;;;;27.80;99.90;;;;;;5131690;27;19914;-64
2021/06/19 13:51:14;;;;;;;;;;;27.60;99.90;;;;;;5131772;27;19912;-67
2021/06/19 13:53:46;;;;;;;;;;;27.50;99.90;;;;;;5130963;27;19915;-64
2021/06/19 13:56:12;;;;;;;;;;;27.60;99.90;;;;;;5118521;27;19961;-63
2021/06/19 13:58:37;;;;;;;;;;;27.40;99.90;;;;;;5128753;27;19919;-65
2021/06/19 14:01:04;;;;;;;;;;;27.40;99.90;;;;;;5112176;27;19911;-65
2021/06/19 14:03:29;;;;;;;;;;;27.50;99.90;;;;;;5131281;27;20396;-65
2021/06/19 14:05:55;;;;;;;;;;;27.30;99.90;;;;;;5131676;27;19911;-66
2021/06/19 14:08:21;;;;;;;;;;;27.10;99.90;;;;;;5131359;27;19933;-64
2021/06/19 14:10:46;;;;;;;;;;;27.00;99.90;;;;;;5131724;27;19908;-64
2021/06/19 14:13:12;;;;;;;;;;;27.00;99.90;;;;;;5113353;28;19907;-65
2021/06/19 14:15:37;;;;;;;;;;;27.00;99.90;;;;;;5131185;27;19971;-65
2021/06/19 14:18:03;;;;;;;;;;;27.20;99.90;;;;;;5131221;27;19915;-65